createdAt,value
2024-05-09T00:00:22.071Z,15.39
2024-05-09T00:01:15.062Z,15.28
2024-05-09T00:02:15.013Z,15.13
2024-05-09T00:03:15.056Z,15.06
2024-05-09T00:04:15.058Z,14.99
2024-05-09T00:05:15.605Z,14.91
2024-05-09T00:06:14.982Z,14.81
2024-05-09T00:07:14.932Z,14.74
2024-05-09T00:08:14.951Z,14.64
2024-05-09T00:09:14.907Z,14.57
2024-05-09T00:10:22.689Z,14.52
2024-05-09T00:11:14.942Z,14.46
2024-05-09T00:12:14.958Z,14.37
2024-05-09T00:13:14.860Z,14.34
2024-05-09T00:14:14.894Z,14.28
2024-05-09T00:15:14.824Z,14.17
2024-05-09T00:16:14.824Z,14.16
2024-05-09T00:17:14.850Z,14.10
2024-05-09T00:18:14.952Z,14.09
2024-05-09T00:19:15.748Z,14.09
2024-05-09T00:20:20.528Z,14.09
2024-05-09T00:21:14.763Z,14.14
2024-05-09T00:22:14.740Z,14.20
2024-05-09T00:23:15.666Z,14.25
2024-05-09T00:24:15.605Z,14.34
2024-05-09T00:25:15.603Z,14.38
2024-05-09T00:26:14.852Z,14.44
2024-05-09T00:27:14.773Z,14.49
2024-05-09T00:28:14.709Z,14.56
2024-05-09T00:29:15.590Z,14.62
2024-05-09T00:30:21.545Z,14.67
2024-05-09T00:31:14.595Z,14.74
2024-05-09T00:32:15.348Z,14.78
2024-05-09T00:33:14.813Z,14.84
2024-05-09T00:34:14.614Z,14.90
2024-05-09T00:35:14.566Z,14.95
2024-05-09T00:36:14.527Z,14.98
2024-05-09T00:37:14.538Z,15.03
2024-05-09T00:38:14.542Z,15.06
2024-05-09T00:39:14.504Z,15.11
2024-05-09T00:40:22.476Z,15.13
2024-05-09T00:41:16.341Z,15.15
2024-05-09T00:42:14.453Z,15.24
2024-05-09T00:43:15.308Z,15.24
2024-05-09T00:44:14.513Z,15.27
2024-05-09T00:45:14.404Z,15.28
2024-05-09T00:46:14.435Z,15.31
2024-05-09T00:47:14.543Z,15.33
2024-05-09T00:48:17.379Z,15.36
2024-05-09T00:49:14.494Z,15.36
2024-05-09T00:50:19.382Z,15.42
2024-05-09T00:51:14.514Z,15.45
2024-05-09T00:52:14.325Z,15.51
2024-05-09T00:53:14.619Z,15.49
2024-05-09T00:54:14.277Z,15.51
2024-05-09T00:55:14.294Z,15.56
2024-05-09T00:56:14.883Z,15.56
2024-05-09T00:57:14.251Z,15.59
2024-05-09T00:58:14.238Z,15.57
2024-05-09T00:59:14.246Z,15.64
2024-05-09T01:00:22.655Z,15.61
2024-05-09T01:01:14.225Z,15.63
2024-05-09T01:02:14.306Z,15.66
2024-05-09T01:03:14.696Z,15.66
2024-05-09T01:04:14.167Z,15.70
2024-05-09T01:05:14.279Z,15.74
2024-05-09T01:06:14.129Z,15.75
2024-05-09T01:07:15.023Z,15.75
2024-05-09T01:08:14.132Z,15.74
2024-05-09T01:09:14.126Z,15.79
2024-05-09T01:10:20.930Z,15.78
2024-05-09T01:11:14.119Z,15.78
2024-05-09T01:12:15.176Z,15.79
2024-05-09T01:13:19.023Z,15.79
2024-05-09T01:14:14.055Z,15.81
2024-05-09T01:15:14.087Z,15.79
2024-05-09T01:16:14.000Z,15.82
2024-05-09T01:17:14.067Z,15.81
2024-05-09T01:18:16.667Z,15.82
2024-05-09T01:19:14.688Z,15.85
2024-05-09T01:20:20.154Z,15.85
2024-05-09T01:21:14.332Z,15.79
2024-05-09T01:22:13.990Z,15.72
2024-05-09T01:23:16.221Z,15.59
2024-05-09T01:24:13.892Z,15.51
2024-05-09T01:25:14.852Z,15.45
2024-05-09T01:26:13.883Z,15.38
2024-05-09T01:27:14.016Z,15.30
2024-05-09T01:28:13.891Z,15.20
2024-05-09T01:29:14.388Z,15.17
2024-05-09T01:30:17.440Z,15.11
2024-05-09T01:31:13.808Z,15.08
2024-05-09T01:32:13.868Z,15.03
2024-05-09T01:33:14.338Z,14.99
2024-05-09T01:34:13.843Z,14.98
2024-05-09T01:35:13.799Z,14.95
2024-05-09T01:36:13.708Z,14.94
2024-05-09T01:37:13.744Z,14.91
2024-05-09T01:38:14.233Z,14.87
2024-05-09T01:39:13.725Z,14.86
2024-05-09T01:40:18.545Z,14.75
2024-05-09T01:41:13.661Z,14.68
2024-05-09T01:42:13.653Z,14.62
2024-05-09T01:43:13.636Z,14.57
2024-05-09T01:44:13.680Z,14.56
2024-05-09T01:45:13.647Z,14.54
2024-05-09T01:46:13.626Z,14.50
2024-05-09T01:47:13.644Z,14.47
2024-05-09T01:48:13.736Z,14.53
2024-05-09T01:49:13.736Z,14.57
2024-05-09T01:50:16.577Z,14.57
2024-05-09T01:51:13.605Z,14.68
2024-05-09T01:52:13.514Z,14.69
2024-05-09T01:53:14.373Z,14.74
2024-05-09T01:54:13.496Z,14.80
2024-05-09T01:55:13.511Z,14.90
2024-05-09T01:56:13.557Z,14.95
2024-05-09T01:57:13.429Z,14.99
2024-05-09T01:58:14.068Z,15.03
2024-05-09T01:59:13.432Z,15.08
2024-05-09T02:00:18.819Z,15.11
2024-05-09T02:01:14.349Z,15.17
2024-05-09T02:02:13.581Z,15.19
2024-05-09T02:03:16.224Z,15.24
2024-05-09T02:04:13.479Z,15.28
2024-05-09T02:05:13.445Z,15.28
2024-05-09T02:06:13.349Z,15.33
2024-05-09T02:07:13.300Z,15.38
2024-05-09T02:08:13.378Z,15.39
2024-05-09T02:09:13.274Z,15.42
2024-05-09T02:10:20.191Z,15.43
2024-05-09T02:11:13.467Z,15.45
2024-05-09T02:12:13.387Z,15.46
2024-05-09T02:13:13.230Z,15.51
2024-05-09T02:14:13.250Z,15.52
2024-05-09T02:15:13.198Z,15.54
2024-05-09T02:16:13.175Z,15.56
2024-05-09T02:17:14.993Z,15.57
2024-05-09T02:18:13.736Z,15.59
2024-05-09T02:19:13.305Z,15.63
2024-05-09T02:20:18.964Z,15.61
2024-05-09T02:21:13.242Z,15.64
2024-05-09T02:22:13.101Z,15.67
2024-05-09T02:23:13.198Z,15.66
2024-05-09T02:24:13.070Z,15.72
2024-05-09T02:25:13.090Z,15.74
2024-05-09T02:26:13.151Z,15.72
2024-05-09T02:27:13.029Z,15.74
2024-05-09T02:28:13.007Z,15.75
2024-05-09T02:29:13.028Z,15.76
2024-05-09T02:30:19.071Z,15.79
2024-05-09T02:31:12.981Z,15.76
2024-05-09T02:32:13.072Z,15.81
2024-05-09T02:33:14.383Z,15.84
2024-05-09T02:34:13.118Z,15.84
2024-05-09T02:35:12.977Z,15.85
2024-05-09T02:36:12.907Z,15.85
2024-05-09T02:37:12.958Z,15.86
2024-05-09T02:38:13.526Z,15.85
2024-05-09T02:39:12.867Z,15.89
2024-05-09T02:40:14.983Z,15.88
2024-05-09T02:41:12.954Z,15.92
2024-05-09T02:42:12.822Z,15.89
2024-05-09T02:43:13.305Z,15.89
2024-05-09T02:44:12.802Z,15.94
2024-05-09T02:45:12.792Z,15.93
2024-05-09T02:46:12.762Z,15.93
2024-05-09T02:47:12.985Z,15.92
2024-05-09T02:48:13.705Z,15.92
2024-05-09T02:49:12.807Z,15.92
2024-05-09T02:50:16.213Z,15.94
2024-05-09T02:51:12.712Z,15.92
2024-05-09T02:52:12.700Z,15.89
2024-05-09T02:53:13.134Z,15.84
2024-05-09T02:54:12.670Z,15.66
2024-05-09T02:55:12.652Z,15.49
2024-05-09T02:56:12.694Z,15.35
2024-05-09T02:57:12.726Z,15.19
2024-05-09T02:58:12.643Z,15.05
2024-05-09T02:59:12.612Z,14.88
2024-05-09T03:00:19.007Z,14.75
2024-05-09T03:01:12.631Z,14.61
2024-05-09T03:02:12.631Z,14.47
2024-05-09T03:03:14.657Z,14.38
2024-05-09T03:04:12.560Z,14.31
2024-05-09T03:05:12.542Z,14.21
2024-05-09T03:06:12.495Z,14.14
2024-05-09T03:07:12.494Z,14.12
2024-05-09T03:08:12.750Z,14.07
2024-05-09T03:09:12.516Z,14.06
2024-05-09T03:10:18.582Z,13.99
2024-05-09T03:11:12.582Z,13.92
2024-05-09T03:12:12.664Z,13.91
2024-05-09T03:13:13.537Z,13.81
2024-05-09T03:14:12.422Z,13.79
2024-05-09T03:15:12.386Z,13.73
2024-05-09T03:16:12.400Z,13.70
2024-05-09T03:17:12.383Z,13.67
2024-05-09T03:18:12.937Z,13.61
2024-05-09T03:19:12.801Z,13.56
2024-05-09T03:20:20.355Z,13.58
2024-05-09T03:21:12.354Z,13.58
2024-05-09T03:22:12.290Z,13.58
2024-05-09T03:23:12.504Z,13.62
2024-05-09T03:24:12.249Z,13.69
2024-05-09T03:25:12.243Z,13.73
2024-05-09T03:26:12.346Z,13.81
2024-05-09T03:27:14.417Z,13.88
2024-05-09T03:28:12.207Z,13.95
2024-05-09T03:29:13.154Z,14.02
2024-05-09T03:31:12.159Z,14.16
2024-05-09T03:32:12.363Z,14.24
2024-05-09T03:33:13.604Z,14.28
2024-05-09T03:34:12.336Z,14.31
2024-05-09T03:35:13.021Z,14.37
2024-05-09T03:36:13.036Z,14.42
2024-05-09T03:37:12.147Z,14.47
2024-05-09T03:38:12.408Z,14.50
2024-05-09T03:39:12.144Z,14.53
2024-05-09T03:40:20.404Z,14.56
2024-05-09T03:41:12.139Z,14.64
2024-05-09T03:42:12.150Z,14.62
2024-05-09T03:43:12.126Z,14.69
2024-05-09T03:44:12.066Z,14.74
2024-05-09T03:45:11.994Z,14.78
2024-05-09T03:46:11.956Z,14.81
2024-05-09T03:47:12.171Z,14.87
2024-05-09T03:48:12.247Z,14.88
2024-05-09T03:49:12.116Z,14.93
2024-05-09T03:50:18.362Z,14.95
2024-05-09T03:51:12.128Z,15.02
2024-05-09T03:52:11.875Z,15.05
2024-05-09T03:53:11.921Z,15.08
2024-05-09T03:54:11.893Z,15.12
2024-05-09T03:55:11.840Z,15.17
2024-05-09T03:56:12.785Z,15.23
2024-05-09T03:57:11.841Z,15.24
2024-05-09T03:58:11.799Z,15.27
2024-05-09T03:59:11.855Z,15.31
2024-05-09T04:00:17.914Z,15.31
2024-05-09T04:01:11.819Z,15.36
2024-05-09T04:02:11.886Z,15.39
2024-05-09T04:03:13.147Z,15.43
2024-05-09T04:04:11.781Z,15.46
2024-05-09T04:05:11.765Z,15.49
2024-05-09T04:06:11.720Z,15.52
2024-05-09T04:07:11.679Z,15.56
2024-05-09T04:08:11.915Z,15.60
2024-05-09T04:09:11.664Z,15.59
2024-05-09T04:10:20.925Z,15.64
2024-05-09T04:11:12.721Z,15.67
2024-05-09T04:12:11.649Z,15.70
2024-05-09T04:13:11.583Z,15.75
2024-05-09T04:14:11.632Z,15.76
2024-05-09T04:15:13.616Z,15.76
2024-05-09T04:16:11.552Z,15.75
2024-05-09T04:17:12.552Z,15.74
2024-05-09T04:18:11.571Z,15.66
2024-05-09T04:19:11.679Z,15.54
2024-05-09T04:20:21.113Z,15.45
2024-05-09T04:21:11.568Z,15.35
2024-05-09T04:22:11.506Z,15.27
2024-05-09T04:23:11.931Z,15.15
2024-05-09T04:24:11.464Z,15.08
2024-05-09T04:25:12.285Z,14.99
2024-05-09T04:26:11.484Z,14.94
2024-05-09T04:27:11.479Z,14.88
2024-05-09T04:28:11.382Z,14.86
2024-05-09T04:29:11.454Z,14.84
2024-05-09T04:30:18.884Z,14.81
2024-05-09T04:31:11.347Z,14.80
2024-05-09T04:32:11.394Z,14.78
2024-05-09T04:33:13.355Z,14.78
2024-05-09T04:34:11.363Z,14.78
2024-05-09T04:35:11.308Z,14.75
2024-05-09T04:36:11.343Z,14.75
2024-05-09T04:37:11.919Z,14.78
2024-05-09T04:38:12.025Z,14.75
2024-05-09T04:39:11.278Z,14.81
2024-05-09T04:40:20.942Z,14.86
2024-05-09T04:41:11.290Z,14.88
2024-05-09T04:42:11.203Z,14.95
2024-05-09T04:43:11.209Z,15.01
2024-05-09T04:44:11.280Z,15.09
2024-05-09T04:45:11.212Z,15.11
2024-05-09T04:46:11.139Z,15.17
2024-05-09T04:47:11.250Z,15.19
2024-05-09T04:48:11.596Z,15.23
2024-05-09T04:49:11.279Z,15.30
2024-05-09T04:50:14.564Z,15.30
2024-05-09T04:51:11.190Z,15.33
2024-05-09T04:52:11.059Z,15.38
2024-05-09T04:53:11.673Z,15.46
2024-05-09T04:54:22.102Z,15.52
2024-05-09T04:55:11.036Z,15.61
2024-05-09T04:56:12.057Z,15.67
2024-05-09T04:57:11.020Z,15.78
2024-05-09T04:58:10.986Z,15.88
2024-05-09T04:59:10.992Z,15.97
2024-05-09T05:00:14.901Z,16.07
2024-05-09T05:01:11.098Z,16.15
2024-05-09T05:02:11.990Z,16.27
2024-05-09T05:03:13.636Z,16.35
2024-05-09T05:04:10.991Z,16.45
2024-05-09T05:05:12.140Z,16.56
2024-05-09T05:06:10.931Z,16.67
2024-05-09T05:07:10.884Z,16.75
2024-05-09T05:08:10.869Z,16.86
2024-05-09T05:09:10.873Z,16.92
2024-05-09T05:10:15.028Z,17.03
2024-05-09T05:11:10.928Z,17.08
2024-05-09T05:12:10.951Z,17.15
2024-05-09T05:13:10.775Z,17.26
2024-05-09T05:14:10.836Z,17.36
2024-05-09T05:15:10.762Z,17.46
2024-05-09T05:16:10.758Z,17.53
2024-05-09T05:17:11.430Z,17.62
2024-05-09T05:18:11.445Z,17.73
2024-05-09T05:19:13.519Z,17.79
2024-05-09T05:20:15.204Z,17.87
2024-05-09T05:21:10.727Z,17.95
2024-05-09T05:22:11.418Z,18.04
2024-05-09T05:23:10.684Z,18.15
2024-05-09T05:24:10.631Z,18.25
2024-05-09T05:25:10.630Z,18.33
2024-05-09T05:26:10.635Z,18.46
2024-05-09T05:27:10.622Z,18.57
2024-05-09T05:28:10.718Z,18.70
2024-05-09T05:29:10.612Z,18.90
2024-05-09T05:30:17.558Z,19.13
2024-05-09T05:31:10.575Z,19.25
2024-05-09T05:32:11.525Z,19.47
2024-05-09T05:33:10.656Z,19.66
2024-05-09T05:34:11.413Z,19.87
2024-05-09T05:35:10.639Z,20.03
2024-05-09T05:36:11.244Z,20.06
2024-05-09T05:37:12.380Z,20.23
2024-05-09T05:38:10.601Z,20.28
2024-05-09T05:39:10.462Z,20.35
2024-05-09T05:40:14.619Z,20.49
2024-05-09T05:41:10.477Z,20.62
2024-05-09T05:42:10.374Z,20.62
2024-05-09T05:43:10.884Z,20.66
2024-05-09T05:44:10.424Z,20.66
2024-05-09T05:45:10.378Z,20.74
2024-05-09T05:46:10.334Z,20.84
2024-05-09T05:47:10.394Z,20.90
2024-05-09T05:48:10.423Z,20.91
2024-05-09T05:49:10.538Z,20.99
2024-05-09T05:50:20.700Z,21.04
2024-05-09T05:51:10.356Z,21.11
2024-05-09T05:52:10.250Z,21.17
2024-05-09T05:53:10.734Z,21.26
2024-05-09T05:54:10.210Z,21.27
2024-05-09T05:55:10.219Z,21.30
2024-05-09T05:56:10.258Z,21.36
2024-05-09T05:57:10.226Z,21.36
2024-05-09T05:58:10.177Z,21.38
2024-05-09T05:59:12.011Z,21.36
2024-05-09T06:00:15.122Z,21.38
2024-05-09T06:01:10.251Z,21.34
2024-05-09T06:02:10.976Z,21.35
2024-05-09T06:03:10.972Z,21.27
2024-05-09T06:04:10.214Z,21.16
2024-05-09T06:05:10.247Z,21.06
2024-05-09T06:06:10.134Z,21.01
2024-05-09T06:07:10.116Z,21.01
2024-05-09T06:08:10.895Z,20.95
2024-05-09T06:09:10.995Z,20.93
2024-05-09T06:10:17.360Z,20.87
2024-05-09T06:11:10.981Z,20.83
2024-05-09T06:12:11.921Z,20.81
2024-05-09T06:13:11.541Z,20.76
2024-05-09T06:14:09.977Z,20.69
2024-05-09T06:15:10.091Z,20.65
2024-05-09T06:16:09.938Z,20.64
2024-05-09T06:17:10.234Z,20.62
2024-05-09T06:18:11.275Z,20.65
2024-05-09T06:19:09.968Z,20.74
2024-05-09T06:20:20.097Z,20.84
2024-05-09T06:21:10.739Z,20.86
2024-05-09T06:22:10.467Z,20.96
2024-05-09T06:23:10.517Z,21.02
2024-05-09T06:24:09.843Z,21.11
2024-05-09T06:25:09.826Z,21.17
2024-05-09T06:26:09.892Z,21.19
2024-05-09T06:27:09.772Z,21.24
2024-05-09T06:28:09.788Z,21.17
2024-05-09T06:29:09.773Z,21.16
2024-05-09T06:30:14.455Z,21.17
2024-05-09T06:31:09.726Z,21.21
2024-05-09T06:32:09.803Z,21.36
2024-05-09T06:33:11.176Z,21.48
2024-05-09T06:34:09.885Z,21.61
2024-05-09T06:35:09.793Z,21.74
2024-05-09T06:36:09.677Z,21.92
2024-05-09T06:37:09.654Z,22.07
2024-05-09T06:38:09.980Z,22.16
2024-05-09T06:39:09.609Z,22.28
2024-05-09T06:40:09.976Z,22.32
2024-05-09T06:41:09.638Z,22.35
2024-05-09T06:42:09.608Z,22.39
2024-05-09T06:43:09.563Z,22.47
2024-05-09T06:44:09.577Z,22.62
2024-05-09T06:45:10.461Z,22.77
2024-05-09T06:46:09.533Z,22.92
2024-05-09T06:47:09.650Z,23.07
2024-05-09T06:48:11.700Z,23.20
2024-05-09T06:49:09.639Z,23.23
2024-05-09T06:50:19.589Z,23.32
2024-05-09T06:51:09.606Z,23.39
2024-05-09T06:52:09.434Z,23.52
2024-05-09T06:53:09.851Z,23.60
2024-05-09T06:54:09.443Z,23.68
2024-05-09T06:55:09.397Z,23.71
2024-05-09T06:56:09.991Z,23.87
2024-05-09T06:57:09.368Z,24.08
2024-05-09T06:58:09.656Z,24.16
2024-05-09T06:59:09.377Z,24.10
2024-05-09T07:00:15.487Z,24.10
2024-05-09T07:01:09.428Z,24.01
2024-05-09T07:02:09.383Z,23.90
2024-05-09T07:03:09.961Z,23.90
2024-05-09T07:04:09.597Z,23.89
2024-05-09T07:05:09.340Z,23.86
2024-05-09T07:06:09.316Z,23.92
2024-05-09T07:07:09.249Z,23.95
2024-05-09T07:08:09.398Z,23.97
2024-05-09T07:09:09.214Z,23.95
2024-05-09T07:10:17.766Z,23.95
2024-05-09T07:11:09.281Z,23.97
2024-05-09T07:12:10.479Z,23.97
2024-05-09T07:13:09.145Z,24.00
2024-05-09T07:14:09.177Z,24.02
2024-05-09T07:15:09.131Z,24.02
2024-05-09T07:16:10.889Z,24.04
2024-05-09T07:17:09.345Z,24.13
2024-05-09T07:18:09.379Z,24.12
2024-05-09T07:19:09.395Z,24.08
2024-05-09T07:20:11.775Z,24.16
2024-05-09T07:21:09.065Z,24.22
2024-05-09T07:22:09.027Z,24.34
2024-05-09T07:23:09.103Z,24.35
2024-05-09T07:24:09.053Z,24.41
2024-05-09T07:25:09.019Z,24.50
2024-05-09T07:26:09.088Z,24.59
2024-05-09T07:27:08.985Z,24.54
2024-05-09T07:28:10.862Z,24.63
2024-05-09T07:29:10.746Z,24.71
2024-05-09T07:30:11.555Z,24.82
2024-05-09T07:31:08.942Z,25.05
2024-05-09T07:32:08.959Z,24.98
2024-05-09T07:33:09.161Z,25.20
2024-05-09T07:34:08.928Z,25.20
2024-05-09T07:35:08.884Z,25.46
2024-05-09T07:36:08.868Z,25.47
2024-05-09T07:37:08.842Z,25.34
2024-05-09T07:38:08.884Z,25.19
2024-05-09T07:39:08.805Z,25.06
2024-05-09T07:40:12.004Z,25.05
2024-05-09T07:41:08.791Z,25.01
2024-05-09T07:42:08.832Z,25.16
2024-05-09T07:43:08.778Z,25.24
2024-05-09T07:44:08.748Z,25.25
2024-05-09T07:45:29.581Z,25.53
2024-05-09T07:47:13.780Z,25.65
2024-05-09T07:50:34.101Z,25.80
2024-05-09T07:53:32.465Z,25.80
2024-05-09T07:53:49.488Z,25.80
2024-05-09T07:54:00.532Z,25.97
2024-05-09T07:54:56.458Z,25.98
2024-05-09T07:55:56.855Z,25.99
2024-05-09T07:56:56.445Z,26.01
2024-05-09T07:57:56.369Z,26.20
2024-05-09T07:58:56.413Z,26.42
2024-05-09T07:59:56.833Z,27.09
2024-05-09T08:00:57.538Z,27.38
2024-05-09T08:01:56.183Z,27.58
2024-05-09T08:02:58.887Z,27.82
2024-05-09T08:03:56.420Z,28.58
2024-05-09T08:04:57.965Z,29.82
2024-05-09T08:05:56.035Z,30.30
2024-05-09T08:06:56.063Z,30.53
2024-05-09T08:07:56.882Z,30.57
2024-05-09T08:08:56.873Z,30.90
2024-05-09T08:09:56.049Z,31.87
2024-05-09T08:10:56.715Z,34.16
2024-05-09T08:11:55.977Z,37.95
2024-05-09T08:12:55.951Z,40.54
2024-05-09T08:13:55.866Z,42.08
2024-05-09T08:14:55.839Z,41.58
2024-05-09T08:15:55.956Z,40.71
2024-05-09T08:16:55.866Z,38.99
2024-05-09T08:17:56.384Z,37.59
2024-05-09T08:18:55.982Z,36.79
2024-05-09T08:19:55.791Z,35.84
2024-05-09T08:20:55.764Z,35.13
2024-05-09T08:21:55.816Z,36.29
2024-05-09T08:22:56.901Z,39.74
2024-05-09T08:23:55.725Z,42.57
2024-05-09T08:24:55.788Z,44.26
2024-05-09T08:25:55.747Z,45.84
2024-05-09T08:26:56.332Z,47.87
2024-05-09T08:27:56.982Z,49.77
2024-05-09T08:28:56.864Z,51.49
2024-05-09T08:29:55.705Z,52.93
2024-05-09T08:30:55.763Z,54.18
2024-05-09T08:31:55.736Z,54.88
2024-05-09T08:32:55.794Z,55.77
2024-05-09T08:33:55.816Z,56.00
2024-05-09T08:34:56.183Z,56.69
2024-05-09T08:35:55.572Z,57.47
2024-05-09T08:36:57.725Z,58.28
2024-05-09T08:37:56.050Z,58.98
2024-05-09T08:38:56.355Z,59.64
2024-05-09T08:39:56.541Z,59.97
2024-05-09T08:40:56.453Z,60.82
2024-05-09T08:41:56.424Z,61.55
2024-05-09T08:42:56.545Z,62.19
2024-05-09T08:43:56.442Z,62.87
2024-05-09T08:44:56.372Z,63.54
2024-05-09T08:45:56.479Z,64.18
2024-05-09T08:46:56.877Z,64.73
2024-05-09T08:47:56.398Z,65.25
2024-05-09T08:48:56.115Z,65.83
2024-05-09T08:49:55.460Z,65.39
2024-05-09T08:50:55.424Z,61.82
2024-05-09T08:51:55.376Z,57.86
2024-05-09T08:52:55.382Z,55.29
2024-05-09T08:53:55.374Z,52.55
2024-05-09T08:54:55.383Z,51.39
2024-05-09T08:55:55.301Z,50.73
2024-05-09T08:56:55.819Z,52.42
2024-05-09T08:57:55.362Z,55.39
2024-05-09T08:58:55.259Z,55.81
2024-05-09T08:59:55.279Z,56.57
2024-05-09T09:00:56.025Z,58.54
2024-05-09T09:01:55.386Z,59.78
2024-05-09T09:02:55.321Z,58.85
2024-05-09T09:03:55.400Z,60.24
2024-05-09T09:04:55.260Z,61.07
2024-05-09T09:05:55.194Z,61.69
2024-05-09T09:06:57.715Z,62.22
2024-05-09T09:07:55.213Z,62.61
2024-05-09T09:08:56.423Z,62.94
2024-05-09T09:09:55.170Z,63.32
2024-05-09T09:10:55.887Z,63.63
2024-05-09T09:11:55.267Z,63.87
2024-05-09T09:12:55.132Z,62.51
2024-05-09T09:13:55.094Z,62.61
2024-05-09T09:14:56.826Z,63.40
2024-05-09T09:15:55.106Z,63.92
2024-05-09T09:16:55.042Z,64.31
2024-05-09T09:17:55.073Z,64.69
2024-05-09T09:18:55.244Z,65.02
2024-05-09T09:19:55.083Z,65.27
2024-05-09T09:20:55.182Z,65.62
2024-05-09T09:21:55.005Z,66.08
2024-05-09T09:22:54.982Z,65.48
2024-05-09T09:23:55.363Z,65.85
2024-05-09T09:24:54.970Z,66.22
2024-05-09T09:25:54.916Z,66.44
2024-05-09T09:26:54.967Z,66.56
2024-05-09T09:27:55.022Z,66.76
2024-05-09T09:28:54.891Z,66.96
2024-05-09T09:29:54.906Z,67.12
2024-05-09T09:30:54.897Z,67.26
2024-05-09T09:31:54.856Z,67.22
2024-05-09T09:32:54.878Z,67.07
2024-05-09T09:33:55.145Z,66.88
2024-05-09T09:34:55.763Z,66.76
2024-05-09T09:35:54.798Z,66.73
2024-05-09T09:36:54.826Z,66.79
2024-05-09T09:37:54.870Z,66.96
2024-05-09T09:38:54.805Z,67.08
2024-05-09T09:39:55.375Z,67.29
2024-05-09T09:40:54.819Z,67.53
2024-05-09T09:41:54.718Z,67.69
2024-05-09T09:42:55.586Z,67.88
2024-05-09T09:43:54.777Z,68.04
2024-05-09T09:45:03.734Z,68.11
2024-05-09T09:45:54.803Z,68.14
2024-05-09T09:46:54.759Z,68.27
2024-05-09T09:47:54.731Z,68.39
2024-05-09T09:48:54.777Z,68.34
2024-05-09T09:49:54.722Z,67.59
2024-05-09T09:50:54.648Z,65.94
2024-05-09T09:51:54.679Z,65.31
2024-05-09T09:52:54.597Z,65.99
2024-05-09T09:53:54.603Z,66.31
2024-05-09T09:54:54.811Z,66.88
2024-05-09T09:55:54.557Z,67.24
2024-05-09T09:56:54.560Z,67.44
2024-05-09T09:57:54.573Z,67.60
2024-05-09T09:58:54.546Z,67.69
2024-05-09T09:59:54.530Z,67.82
2024-05-09T10:00:54.681Z,68.04
2024-05-09T10:01:54.535Z,68.14
2024-05-09T10:02:54.502Z,68.33
2024-05-09T10:03:55.515Z,68.48
2024-05-09T10:04:54.966Z,68.52
2024-05-09T10:05:54.494Z,68.50
2024-05-09T10:06:54.890Z,68.53
2024-05-09T10:07:54.427Z,68.71
2024-05-09T10:08:54.420Z,68.86
2024-05-09T10:09:54.429Z,69.05
2024-05-09T10:10:55.122Z,69.23
2024-05-09T10:11:59.891Z,69.46
2024-05-09T10:12:54.440Z,69.63
2024-05-09T10:13:55.308Z,69.78
2024-05-09T10:14:54.373Z,70.01
2024-05-09T10:15:54.758Z,70.08
2024-05-09T10:16:56.314Z,69.98
2024-05-09T10:17:54.419Z,69.89
2024-05-09T10:18:54.516Z,69.78
2024-05-09T10:19:54.324Z,69.72
2024-05-09T10:20:54.945Z,69.72
2024-05-09T10:21:54.979Z,69.76
2024-05-09T10:22:54.275Z,69.73
2024-05-09T10:23:54.251Z,69.72
2024-05-09T10:24:55.245Z,69.76
2024-05-09T10:25:54.256Z,69.76
2024-05-09T10:26:54.930Z,69.73
2024-05-09T10:27:54.983Z,69.70
2024-05-09T10:28:54.846Z,69.75
2024-05-09T10:29:54.926Z,69.81
2024-05-09T10:30:54.952Z,69.78
2024-05-09T10:31:54.168Z,69.82
2024-05-09T10:32:54.289Z,69.81
2024-05-09T10:33:54.559Z,69.83
2024-05-09T10:34:54.798Z,69.86
2024-05-09T10:35:54.818Z,69.89
2024-05-09T10:36:54.183Z,69.89
2024-05-09T10:37:54.066Z,69.93
2024-05-09T10:38:54.039Z,69.72
2024-05-09T10:39:54.087Z,69.58
2024-05-09T10:40:54.860Z,69.49
2024-05-09T10:41:54.019Z,69.43
2024-05-09T10:42:54.165Z,69.28
2024-05-09T10:43:53.999Z,69.05
2024-05-09T10:44:53.973Z,68.85
2024-05-09T10:45:53.992Z,68.60
2024-05-09T10:46:54.006Z,68.33
2024-05-09T10:47:54.078Z,68.08
2024-05-09T10:48:54.074Z,67.83
2024-05-09T10:49:54.027Z,67.59
2024-05-09T10:50:53.904Z,67.36
2024-05-09T10:51:54.460Z,67.22
2024-05-09T10:52:53.915Z,67.11
2024-05-09T10:53:53.921Z,67.15
2024-05-09T10:54:53.912Z,67.26
2024-05-09T10:55:53.852Z,67.41
2024-05-09T10:56:53.875Z,67.50
2024-05-09T10:57:53.887Z,67.47
2024-05-09T10:58:54.800Z,67.43
2024-05-09T10:59:53.799Z,67.44
2024-05-09T11:00:54.931Z,67.41
2024-05-09T11:01:53.848Z,67.38
2024-05-09T11:02:53.852Z,67.34
2024-05-09T11:03:54.015Z,67.36
2024-05-09T11:04:53.936Z,67.38
2024-05-09T11:05:53.828Z,67.26
2024-05-09T11:06:53.796Z,67.10
2024-05-09T11:07:53.726Z,66.89
2024-05-09T11:08:53.718Z,66.69
2024-05-09T11:09:53.780Z,66.36
2024-05-09T11:10:53.769Z,66.14
2024-05-09T11:11:53.696Z,65.98
2024-05-09T11:12:53.714Z,65.70
2024-05-09T11:13:53.635Z,65.40
2024-05-09T11:14:53.665Z,65.11
2024-05-09T11:15:54.467Z,64.90
2024-05-09T11:16:53.646Z,64.61
2024-05-09T11:17:53.645Z,64.25
2024-05-09T11:18:53.702Z,60.60
2024-05-09T11:19:53.617Z,58.67
2024-05-09T11:20:53.589Z,59.60
2024-05-09T11:21:53.593Z,59.73
2024-05-09T11:22:53.561Z,59.43
2024-05-09T11:23:53.533Z,58.82
2024-05-09T11:24:53.629Z,57.81
2024-05-09T11:25:53.554Z,56.51
2024-05-09T11:26:53.534Z,55.19
2024-05-09T11:27:53.581Z,53.86
2024-05-09T11:28:53.466Z,52.59
2024-05-09T11:29:53.487Z,51.23
2024-05-09T11:30:53.494Z,49.93
2024-05-09T11:31:53.866Z,48.78
2024-05-09T11:32:54.571Z,47.67
2024-05-09T11:33:53.525Z,46.64
2024-05-09T11:34:53.845Z,45.69
2024-05-09T11:35:55.322Z,44.82
2024-05-09T11:36:53.432Z,43.98
2024-05-09T11:37:53.454Z,43.13
2024-05-09T11:38:53.317Z,42.22
2024-05-09T11:39:53.518Z,41.40
2024-05-09T11:40:53.519Z,40.62
2024-05-09T11:41:53.328Z,39.98
2024-05-09T11:42:53.652Z,39.35
2024-05-09T11:43:53.259Z,38.78
2024-05-09T11:44:53.898Z,38.20
2024-05-09T11:45:53.271Z,37.73
2024-05-09T11:46:53.251Z,37.20
2024-05-09T11:47:53.451Z,36.75
2024-05-09T11:48:53.478Z,36.23
2024-05-09T11:49:53.253Z,35.77
2024-05-09T11:50:53.249Z,35.33
2024-05-09T11:51:53.312Z,34.95
2024-05-09T11:52:53.169Z,34.61
2024-05-09T11:53:53.138Z,34.29
2024-05-09T11:54:53.206Z,33.98
2024-05-09T11:55:53.141Z,33.68
2024-05-09T11:56:53.170Z,33.45
2024-05-09T11:57:53.336Z,33.17
2024-05-09T11:58:53.105Z,32.93
2024-05-09T11:59:53.100Z,32.70
2024-05-09T12:00:53.180Z,32.51
2024-05-09T12:01:53.217Z,32.29
2024-05-09T12:02:53.032Z,32.06
2024-05-09T12:03:53.206Z,31.87
2024-05-09T12:04:53.614Z,31.65
2024-05-09T12:05:53.003Z,31.48
2024-05-09T12:06:53.049Z,31.36
2024-05-09T12:07:52.949Z,31.18
2024-05-09T12:08:52.946Z,31.04
2024-05-09T12:09:52.983Z,30.87
2024-05-09T12:10:53.277Z,30.75
2024-05-09T12:11:53.813Z,30.56
2024-05-09T12:12:52.929Z,30.40
2024-05-09T12:13:52.896Z,30.27
2024-05-09T12:14:52.896Z,30.12
2024-05-09T12:15:52.880Z,29.99
2024-05-09T12:16:52.918Z,29.86
2024-05-09T12:17:53.003Z,29.77
2024-05-09T12:18:52.953Z,29.68
2024-05-09T12:19:52.804Z,29.52
2024-05-09T12:20:52.775Z,29.37
2024-05-09T12:21:52.839Z,29.26
2024-05-09T12:22:52.803Z,29.16
2024-05-09T12:23:52.731Z,29.08
2024-05-09T12:24:52.769Z,29.03
2024-05-09T12:25:52.717Z,28.95
2024-05-09T12:26:52.736Z,28.85
2024-05-09T12:27:52.733Z,28.72
2024-05-09T12:28:52.678Z,28.63
2024-05-09T12:29:52.656Z,28.47
2024-05-09T12:30:53.340Z,28.35
2024-05-09T12:31:52.658Z,28.23
2024-05-09T12:32:52.828Z,28.04
2024-05-09T12:33:52.684Z,27.88
2024-05-09T12:34:53.752Z,27.69
2024-05-09T12:35:52.577Z,27.46
2024-05-09T12:36:52.635Z,27.20
2024-05-09T12:37:52.550Z,26.92
2024-05-09T12:38:52.592Z,26.72
2024-05-09T12:39:53.331Z,26.52
2024-05-09T12:40:52.743Z,26.40
2024-05-09T12:41:52.516Z,26.31
2024-05-09T12:42:52.485Z,26.24
2024-05-09T14:42:03.458Z,20.89
2024-05-09T14:43:04.544Z,20.89
2024-05-09T14:44:04.470Z,20.96
2024-05-09T14:45:04.437Z,21.08
2024-05-09T14:46:04.457Z,21.26
2024-05-09T14:47:04.409Z,21.45
2024-05-09T14:48:04.575Z,21.61
2024-05-09T14:49:04.535Z,21.82
2024-05-09T14:50:06.864Z,21.99
2024-05-09T14:51:04.349Z,22.16
2024-05-09T14:52:04.392Z,22.32
2024-05-09T14:53:04.333Z,22.41
2024-05-09T14:54:04.292Z,22.56
2024-05-09T14:55:04.373Z,22.65